createdAt,value
2018-07-03T00:01:21.814Z,0.70
2018-07-03T00:03:51.833Z,1.00
2018-07-03T00:06:23.650Z,1.30
2018-07-03T00:08:54.436Z,0.93
2018-07-03T00:11:31.918Z,0.87
2018-07-03T00:14:03.193Z,0.70
2018-07-03T00:16:40.843Z,0.90
2018-07-03T00:19:10.232Z,1.00
2018-07-03T00:21:44.294Z,0.90
2018-07-03T00:24:16.587Z,0.90
2018-07-03T00:26:47.022Z,0.87
2018-07-03T00:29:18.859Z,0.60
2018-07-03T00:31:52.615Z,1.07
2018-07-03T00:34:22.383Z,0.90
2018-07-03T00:36:53.326Z,0.80
2018-07-03T00:39:23.881Z,1.00
2018-07-03T00:41:55.308Z,0.83
2018-07-03T00:44:26.354Z,0.70
2018-07-03T00:46:56.562Z,0.77
2018-07-03T00:49:27.509Z,0.80
2018-07-03T00:51:59.510Z,0.93
2018-07-03T00:54:29.730Z,0.80
2018-07-03T00:56:59.745Z,0.90
2018-07-03T00:59:30.963Z,0.77
2018-07-03T01:02:04.062Z,0.73
2018-07-03T01:04:35.363Z,0.70
2018-07-03T01:07:05.497Z,0.87
2018-07-03T01:09:35.801Z,0.70
2018-07-03T01:12:07.026Z,0.80
2018-07-03T01:14:37.682Z,0.80
2018-07-03T01:17:08.354Z,0.90
2018-07-03T01:19:38.657Z,0.90
2018-07-03T01:22:12.110Z,0.80
2018-07-03T01:24:43.118Z,1.33
2018-07-03T01:27:14.893Z,1.10
2018-07-03T01:29:45.110Z,1.03
2018-07-03T01:35:10.760Z,1.30
2018-07-03T01:37:41.103Z,1.17
2018-07-03T01:40:10.870Z,1.10
2018-07-03T01:42:40.846Z,0.97
2018-07-03T01:45:10.996Z,1.13
2018-07-03T01:47:41.084Z,1.00
2018-07-03T01:50:11.387Z,1.10
2018-07-03T01:52:53.857Z,0.93
2018-07-03T01:55:25.410Z,0.83
2018-07-03T01:57:56.887Z,0.93
2018-07-03T02:00:26.957Z,1.00
2018-07-03T02:03:09.703Z,0.90
2018-07-03T02:05:39.661Z,1.00
2018-07-03T02:08:09.207Z,1.00
2018-07-03T02:10:39.813Z,0.90
2018-07-03T02:26:04.694Z,0.90
2018-07-03T02:28:38.065Z,1.10
2018-07-03T02:31:09.522Z,1.10
2018-07-03T02:33:39.469Z,0.80
2018-07-03T02:36:13.897Z,0.70
2018-07-03T02:38:44.261Z,0.90
2018-07-03T02:41:14.278Z,1.00
2018-07-03T02:43:45.810Z,1.00
2018-07-03T02:46:16.634Z,1.00
2018-07-03T02:48:47.798Z,1.03
2018-07-03T02:51:17.038Z,1.10
2018-07-03T02:53:47.623Z,0.97
2018-07-03T02:56:19.468Z,0.90
2018-07-03T02:58:50.470Z,1.07
2018-07-03T03:01:20.476Z,1.13
2018-07-03T03:03:50.489Z,1.30
2018-07-03T03:06:35.896Z,1.07
2018-07-03T03:09:11.077Z,0.77
2018-07-03T03:11:41.085Z,0.97
2018-07-03T03:14:13.254Z,1.60
2018-07-03T03:16:44.641Z,1.27
2018-07-03T03:19:16.973Z,1.10
2018-07-03T03:21:47.382Z,0.80
2018-07-03T03:24:17.721Z,0.93
2018-07-03T03:26:56.782Z,0.97
2018-07-03T03:29:26.950Z,1.07
2018-07-03T03:31:57.747Z,1.20
2018-07-03T03:34:27.498Z,0.90
2018-07-03T03:37:00.402Z,0.90
2018-07-03T03:39:30.401Z,1.30
2018-07-03T03:42:01.694Z,1.10
2018-07-03T03:44:32.573Z,1.20
2018-07-03T03:47:10.811Z,1.20
2018-07-03T03:49:41.652Z,0.90
2018-07-03T03:52:12.270Z,0.80
2018-07-03T03:54:42.606Z,1.00
2018-07-03T03:57:19.714Z,1.17
2018-07-03T03:59:50.390Z,0.87
2018-07-03T04:02:20.115Z,0.97
2018-07-03T04:04:50.474Z,0.90
2018-07-03T04:07:23.697Z,1.07
2018-07-03T04:09:53.498Z,1.17
2018-07-03T04:12:26.248Z,0.90
2018-07-03T04:14:59.113Z,1.00
2018-07-03T04:20:30.606Z,1.03
2018-07-03T04:23:01.207Z,1.10
2018-07-03T04:25:33.552Z,1.17
2018-07-03T04:28:16.278Z,0.83
2018-07-03T04:30:46.666Z,0.90
2018-07-03T04:33:17.306Z,1.00
2018-07-03T04:35:48.208Z,1.07
2018-07-03T04:38:32.019Z,0.93
2018-07-03T04:41:01.954Z,0.90
2018-07-03T04:43:32.095Z,0.80
2018-07-03T04:46:02.551Z,0.90
2018-07-03T04:48:33.288Z,1.00
2018-07-03T04:51:03.513Z,1.20
2018-07-03T04:53:33.594Z,0.90
2018-07-03T04:56:04.070Z,0.90
2018-07-03T04:58:47.282Z,0.93
2018-07-03T05:01:16.942Z,1.23
2018-07-03T05:03:47.261Z,1.00
2018-07-03T05:06:17.783Z,1.20
2018-07-03T05:08:49.822Z,1.03
2018-07-03T05:11:19.641Z,1.10
2018-07-03T05:13:49.673Z,1.20
2018-07-03T05:16:20.389Z,1.30
2018-07-03T05:19:04.166Z,0.93
2018-07-03T05:21:35.436Z,1.10
2018-07-03T05:24:06.798Z,1.10
2018-07-03T05:26:37.261Z,0.90
2018-07-03T05:29:27.555Z,1.00
2018-07-03T05:32:01.075Z,1.20
2018-07-03T05:34:32.223Z,1.20
2018-07-03T05:37:02.118Z,0.90
2018-07-03T05:39:38.877Z,1.00
2018-07-03T05:42:08.246Z,1.10
2018-07-03T05:44:38.334Z,1.20
2018-07-03T05:47:07.945Z,1.30
2018-07-03T05:49:45.512Z,1.00
2018-07-03T05:52:17.307Z,1.37
2018-07-03T05:54:48.453Z,1.00
2018-07-03T05:57:20.034Z,1.17
2018-07-03T06:00:01.005Z,1.10
2018-07-03T06:02:30.906Z,1.10
2018-07-03T06:05:02.091Z,1.30
2018-07-03T06:07:32.853Z,1.10
2018-07-03T06:10:04.853Z,1.10
2018-07-03T06:12:35.750Z,1.37
2018-07-03T06:15:05.805Z,1.00
2018-07-03T06:17:35.733Z,1.20
2018-07-03T06:20:10.333Z,0.93
2018-07-03T06:22:41.563Z,1.10
2018-07-03T06:25:12.595Z,1.40
2018-07-03T06:27:43.389Z,1.10
2018-07-03T06:30:21.254Z,1.30
2018-07-03T06:32:51.991Z,1.10
2018-07-03T06:35:22.173Z,1.10
2018-07-03T06:37:52.277Z,0.97
2018-07-03T06:40:23.729Z,0.90
2018-07-03T06:42:54.671Z,1.00
2018-07-03T06:45:24.304Z,1.07
2018-07-03T06:47:54.446Z,1.00
2018-07-03T06:50:28.441Z,1.20
2018-07-03T06:52:58.219Z,0.97
2018-07-03T06:55:28.009Z,1.20
2018-07-03T06:57:58.002Z,1.13
2018-07-03T07:00:30.734Z,1.50
2018-07-03T07:03:00.721Z,0.97
2018-07-03T07:05:31.063Z,1.07
2018-07-03T07:08:01.039Z,0.90
2018-07-03T07:10:31.210Z,1.20
2018-07-03T07:13:00.994Z,1.07
2018-07-03T07:15:30.522Z,1.10
2018-07-03T07:18:00.486Z,1.10
2018-07-03T07:20:30.426Z,1.17
2018-07-03T07:23:00.262Z,1.43
2018-07-03T07:25:30.185Z,1.10
2018-07-03T07:28:00.359Z,1.10
2018-07-03T07:30:43.352Z,1.20
2018-07-03T07:33:13.289Z,0.90
2018-07-03T07:35:43.737Z,1.07
2018-07-03T07:38:13.484Z,1.33
2018-07-03T07:40:45.226Z,1.70
2018-07-03T07:43:14.834Z,1.07
2018-07-03T07:45:44.891Z,1.63
2018-07-03T07:48:15.583Z,1.70
2018-07-03T07:50:46.579Z,1.33
2018-07-03T07:53:17.758Z,1.00
2018-07-03T07:55:48.678Z,1.63
2018-07-03T07:58:18.994Z,0.90
2018-07-03T08:00:50.444Z,1.10
2018-07-03T08:03:20.062Z,1.33
2018-07-03T08:05:51.165Z,1.17
2018-07-03T08:08:20.946Z,1.00
2018-07-03T08:10:58.030Z,1.00
2018-07-03T08:13:27.669Z,1.30
2018-07-03T08:15:56.948Z,1.50
2018-07-03T08:18:27.911Z,1.20
2018-07-03T08:21:06.847Z,1.30
2018-07-03T08:23:37.705Z,0.90
2018-07-03T08:26:07.767Z,1.10
2018-07-03T08:28:39.250Z,1.10
2018-07-03T08:31:10.709Z,1.13
2018-07-03T08:33:41.056Z,1.10
2018-07-03T08:36:11.118Z,1.30
2018-07-03T08:38:41.278Z,0.93
2018-07-03T08:41:12.947Z,0.90
2018-07-03T08:43:43.878Z,0.90
2018-07-03T08:46:13.133Z,1.07
2018-07-03T08:48:42.713Z,1.57
2018-07-03T08:51:14.116Z,1.30
2018-07-03T08:53:46.058Z,1.10
2018-07-03T08:56:16.424Z,1.20
2018-07-03T08:58:46.479Z,1.20
2018-07-03T09:01:17.987Z,1.10
2018-07-03T09:03:47.744Z,1.40
2018-07-03T09:06:17.413Z,1.03
2018-07-03T09:08:47.238Z,1.10
2018-07-03T09:16:16.869Z,1.07
2018-07-03T09:18:46.290Z,1.10
2018-07-03T09:21:16.149Z,1.13
2018-07-03T09:23:45.476Z,1.10
2018-07-03T09:26:16.412Z,0.90
2018-07-03T09:28:46.493Z,1.23
2018-07-03T09:31:16.269Z,1.10
2018-07-03T09:33:46.065Z,1.23
2018-07-03T09:36:16.171Z,1.40
2018-07-03T09:38:46.679Z,1.20
2018-07-03T09:41:17.591Z,0.90
2018-07-03T09:43:57.871Z,1.30
2018-07-03T09:46:28.056Z,1.23
2018-07-03T09:54:46.172Z,1.20
2018-07-03T09:57:16.100Z,1.20
2018-07-03T09:59:45.702Z,1.33
2018-07-03T10:02:16.144Z,1.30
2018-07-03T10:07:58.730Z,1.30
2018-07-03T10:10:29.342Z,1.17
2018-07-03T10:12:58.898Z,1.20
2018-07-03T10:15:28.522Z,1.10
2018-07-03T10:17:57.829Z,1.10
2018-07-03T10:20:27.098Z,1.20
2018-07-03T10:22:57.645Z,1.30
2018-07-03T10:25:26.907Z,1.33
2018-07-03T10:27:57.434Z,1.10
2018-07-03T10:30:27.117Z,1.70
2018-07-03T10:32:57.273Z,1.63
2018-07-03T10:35:36.098Z,1.27
2018-07-03T10:38:06.887Z,1.17
2018-07-03T10:40:37.070Z,1.20
2018-07-03T10:43:07.142Z,1.40
2018-07-03T10:45:38.874Z,1.40
2018-07-03T10:48:12.062Z,1.40
2018-07-03T10:50:42.225Z,1.40
2018-07-03T10:53:11.603Z,1.40
2018-07-03T10:55:44.314Z,1.50
2018-07-03T10:58:13.918Z,1.30
2018-07-03T11:00:44.742Z,1.50
2018-07-03T11:03:14.827Z,1.60
2018-07-03T11:05:45.778Z,1.50
2018-07-03T11:08:15.925Z,1.20
2018-07-03T11:10:49.149Z,1.67
2018-07-03T11:19:37.595Z,1.53
2018-07-03T11:22:07.512Z,1.60
2018-07-03T11:24:42.351Z,2.00
2018-07-03T11:27:12.562Z,1.53
2018-07-03T11:29:41.897Z,1.60
2018-07-03T11:41:43.259Z,2.90
2018-07-03T11:50:50.562Z,1.67
2018-07-03T11:53:19.793Z,1.60
2018-07-03T11:55:50.010Z,1.53
2018-07-03T11:58:20.214Z,1.70
2018-07-03T12:00:52.927Z,1.40
2018-07-03T12:03:22.972Z,1.87
2018-07-03T12:05:53.335Z,1.90
2018-07-03T12:08:23.554Z,2.00
2018-07-03T12:11:04.411Z,1.70
2018-07-03T12:13:33.887Z,2.30
2018-07-03T12:16:03.747Z,2.47
2018-07-03T12:18:39.314Z,2.30
2018-07-03T12:21:12.806Z,2.30
2018-07-03T12:23:43.036Z,2.40
2018-07-03T12:26:12.314Z,2.30
2018-07-03T12:28:41.611Z,2.50
2018-07-03T12:31:11.317Z,2.30
2018-07-03T12:33:41.186Z,2.53
2018-07-03T12:36:10.858Z,2.10
2018-07-03T12:38:44.437Z,2.53
2018-07-03T12:41:13.867Z,2.50
2018-07-03T12:43:44.367Z,2.40
2018-07-03T12:46:13.884Z,2.53
2018-07-03T12:48:43.754Z,2.37
2018-07-03T12:51:13.092Z,3.00
2018-07-03T12:53:42.448Z,3.03
2018-07-03T12:56:12.647Z,2.33
2018-07-03T12:58:42.334Z,2.70
2018-07-03T13:01:11.734Z,2.37
2018-07-03T13:06:33.229Z,2.20
2018-07-03T13:09:02.998Z,2.60
2018-07-03T13:11:32.610Z,1.87
2018-07-03T13:14:08.443Z,2.37
2018-07-03T13:16:38.220Z,2.37
2018-07-03T13:19:08.330Z,2.73
2018-07-03T13:21:38.615Z,2.33
2018-07-03T13:24:16.279Z,2.53
2018-07-03T13:26:46.585Z,2.70
2018-07-03T13:29:16.162Z,2.60
2018-07-03T13:31:47.639Z,2.30
2018-07-03T13:34:25.457Z,2.63
2018-07-03T13:36:55.794Z,2.50
2018-07-03T13:39:26.588Z,2.80
2018-07-03T13:41:56.424Z,2.53
2018-07-03T13:44:28.025Z,2.27
2018-07-03T13:46:57.407Z,2.00
2018-07-03T13:49:26.890Z,2.70
2018-07-03T13:51:56.189Z,2.00
2018-07-03T13:54:28.367Z,2.20
2018-07-03T13:57:00.368Z,2.37
2018-07-03T13:59:31.069Z,2.63
2018-07-03T14:02:00.362Z,2.50
2018-07-03T14:04:36.074Z,2.57
2018-07-03T14:07:07.347Z,2.63
2018-07-03T14:09:37.431Z,2.77
2018-07-03T14:12:06.994Z,2.80
2018-07-03T14:14:38.439Z,2.70
2018-07-03T14:17:08.171Z,2.80
2018-07-03T14:19:37.775Z,2.73
2018-07-03T14:22:07.715Z,2.87
2018-07-03T14:24:38.270Z,2.80
2018-07-03T14:27:08.139Z,2.47
2018-07-03T14:29:37.426Z,2.83
2018-07-03T14:32:06.975Z,3.17
2018-07-03T14:34:36.233Z,3.40
2018-07-03T14:37:06.564Z,2.60
2018-07-03T14:39:35.850Z,3.10
2018-07-03T14:42:05.534Z,2.77
2018-07-03T14:49:35.134Z,2.70
2018-07-03T14:52:05.971Z,2.67
2018-07-03T14:54:35.636Z,2.70
2018-07-03T14:57:08.915Z,3.40
2018-07-03T14:59:38.523Z,3.10
2018-07-03T15:02:11.780Z,2.97
2018-07-03T15:04:42.153Z,2.63
2018-07-03T15:07:24.392Z,2.80
2018-07-03T15:09:54.234Z,3.17
2018-07-03T15:12:24.238Z,4.10
2018-07-03T15:14:53.918Z,3.10
2018-07-03T15:17:29.282Z,2.80
2018-07-03T15:20:00.178Z,2.50
2018-07-03T15:22:30.501Z,2.80
2018-07-03T15:24:59.874Z,3.07
2018-07-03T15:27:31.473Z,2.97
2018-07-03T15:30:01.271Z,2.63
2018-07-03T15:32:30.566Z,2.87
2018-07-03T15:35:01.237Z,2.63
2018-07-03T15:37:43.890Z,2.97
2018-07-03T15:40:14.081Z,2.93
2018-07-03T15:42:43.345Z,2.40
2018-07-03T15:45:14.724Z,2.93
2018-07-03T15:47:46.230Z,2.93
2018-07-03T15:50:15.743Z,2.57
2018-07-03T15:52:45.505Z,2.20
2018-07-03T15:55:15.719Z,2.90
2018-07-03T15:57:46.226Z,2.60
2018-07-03T16:00:16.655Z,3.30
2018-07-03T16:02:57.797Z,2.70
2018-07-03T16:05:40.346Z,2.70
2018-07-03T16:08:31.115Z,2.50
2018-07-03T16:11:01.139Z,2.70
2018-07-03T16:13:30.858Z,2.37
2018-07-03T16:16:01.058Z,2.67
2018-07-03T16:18:51.485Z,2.83
2018-07-03T16:21:21.450Z,2.70
2018-07-03T16:23:50.767Z,2.70
2018-07-03T16:26:20.973Z,2.70
2018-07-03T16:33:51.354Z,2.50
2018-07-03T16:36:21.177Z,2.40
2018-07-03T16:38:50.538Z,2.70
2018-07-03T16:41:20.417Z,3.00
2018-07-03T16:43:50.090Z,2.97
2018-07-03T16:46:20.112Z,2.37
2018-07-03T16:48:50.142Z,2.80
2018-07-03T16:51:21.080Z,2.73
2018-07-03T16:53:51.670Z,2.40
2018-07-03T16:56:22.778Z,2.73
2018-07-03T16:58:52.722Z,2.40
2018-07-03T17:01:23.223Z,2.43
2018-07-03T17:03:52.682Z,2.43
2018-07-03T17:06:22.954Z,2.40
2018-07-03T17:08:54.297Z,2.50
2018-07-03T17:11:26.513Z,2.40
2018-07-03T17:13:56.991Z,2.73
2018-07-03T17:16:30.892Z,2.13
2018-07-03T17:19:06.483Z,2.80
2018-07-03T17:21:40.238Z,2.73
2018-07-03T17:24:09.921Z,2.40
2018-07-03T17:26:41.090Z,2.40
2018-07-03T17:29:13.249Z,2.40
2018-07-03T17:31:44.548Z,2.40
2018-07-03T17:34:16.188Z,2.57
2018-07-03T17:36:46.416Z,2.13
2018-07-03T17:39:18.466Z,2.30
2018-07-03T17:42:00.669Z,2.10
2018-07-03T17:44:47.793Z,2.10
2018-07-03T17:47:18.042Z,2.57
2018-07-03T17:49:47.648Z,2.00
2018-07-03T17:52:27.590Z,2.17
2018-07-03T17:54:57.901Z,2.23
2018-07-03T17:57:27.286Z,2.10
2018-07-03T17:59:56.559Z,2.10
2018-07-03T18:02:28.062Z,1.90
2018-07-03T18:04:58.042Z,1.60
2018-07-03T18:07:27.497Z,1.70
2018-07-03T18:09:56.790Z,1.93
2018-07-03T18:12:29.794Z,2.10
2018-07-03T18:14:58.986Z,2.10
2018-07-03T18:17:29.535Z,1.90
2018-07-03T18:19:59.282Z,2.03
2018-07-03T18:22:29.895Z,2.03
2018-07-03T18:25:00.519Z,1.63
2018-07-03T18:27:32.325Z,1.83
2018-07-03T18:30:02.594Z,1.93
2018-07-03T18:32:33.694Z,2.20
2018-07-03T18:35:05.044Z,2.10
2018-07-03T18:37:35.706Z,2.10
2018-07-03T18:40:05.988Z,2.10
2018-07-03T18:42:38.609Z,1.87
2018-07-03T18:45:08.782Z,1.80
2018-07-03T18:47:39.450Z,2.00
2018-07-03T18:50:08.971Z,2.03
2018-07-03T18:52:45.026Z,1.90
2018-07-03T18:55:16.113Z,2.20
2018-07-03T18:57:45.401Z,2.30
2018-07-03T19:00:16.163Z,2.00
2018-07-03T19:02:55.293Z,2.20
2018-07-03T19:05:26.119Z,2.20
2018-07-03T19:07:57.030Z,2.07
2018-07-03T19:10:26.494Z,2.27
2018-07-03T19:12:57.778Z,2.27
2018-07-03T19:15:27.936Z,2.10
2018-07-03T19:17:58.394Z,2.03
2018-07-03T19:20:29.587Z,2.13
2018-07-03T19:23:00.990Z,2.70
2018-07-03T19:25:30.603Z,2.00
2018-07-03T19:28:01.411Z,2.60
2018-07-03T19:30:30.656Z,2.10
2018-07-03T19:33:08.765Z,2.40
2018-07-03T19:35:38.798Z,2.03
2018-07-03T19:38:10.702Z,2.33
2018-07-03T19:40:41.694Z,2.10
2018-07-03T19:43:27.326Z,2.20
2018-07-03T19:45:58.830Z,2.40
2018-07-03T19:48:29.550Z,2.30
2018-07-03T19:50:58.893Z,1.90
2018-07-03T19:53:34.617Z,2.00
2018-07-03T19:56:04.249Z,2.40
2018-07-03T19:58:35.355Z,2.33
2018-07-03T20:01:06.385Z,2.17
2018-07-03T20:03:38.339Z,2.03
2018-07-03T20:06:08.603Z,2.20
2018-07-03T20:08:38.220Z,2.00
2018-07-03T20:11:08.559Z,2.03
2018-07-03T20:13:40.410Z,2.00
2018-07-03T20:16:10.416Z,2.00
2018-07-03T20:18:41.285Z,1.53
2018-07-03T20:21:11.551Z,2.00
2018-07-03T20:23:58.646Z,2.30
2018-07-03T20:26:29.788Z,2.10
2018-07-03T20:29:00.208Z,1.90
2018-07-03T20:31:31.355Z,2.03
2018-07-03T20:34:08.374Z,1.63
2018-07-03T20:36:39.017Z,1.97
2018-07-03T20:39:09.333Z,1.80
2018-07-03T20:41:40.853Z,2.10
2018-07-03T20:44:14.071Z,1.97
2018-07-03T20:46:44.065Z,2.00
2018-07-03T20:49:16.542Z,1.80
2018-07-03T20:51:48.146Z,1.93
2018-07-03T20:54:29.749Z,1.90
2018-07-03T20:56:59.966Z,1.60
2018-07-03T20:59:29.459Z,2.20
2018-07-03T21:01:58.851Z,2.10
2018-07-03T21:04:32.112Z,2.17
2018-07-03T21:07:02.035Z,1.83
2018-07-03T21:09:33.276Z,1.80
2018-07-03T21:12:03.911Z,1.90
2018-07-03T21:14:43.495Z,1.70
2018-07-03T21:17:14.290Z,2.00
2018-07-03T21:19:44.602Z,1.93
2018-07-03T21:22:14.617Z,2.03
2018-07-03T21:24:49.280Z,2.03
2018-07-03T21:27:19.267Z,2.20
2018-07-03T21:29:48.897Z,2.37
2018-07-03T21:32:19.964Z,2.00
2018-07-03T21:34:51.117Z,1.90
2018-07-03T21:37:20.742Z,1.60
2018-07-03T21:39:50.897Z,2.43
2018-07-03T21:42:20.986Z,2.20
2018-07-03T21:47:44.129Z,2.23
2018-07-03T21:50:15.463Z,2.03
2018-07-03T21:52:44.890Z,2.27
2018-07-03T21:55:21.330Z,2.30
2018-07-03T21:57:52.805Z,1.83
2018-07-03T22:00:42.802Z,2.33
2018-07-03T22:03:13.206Z,2.20
2018-07-03T22:05:46.306Z,2.13
2018-07-03T22:08:16.630Z,2.40
2018-07-03T22:10:46.813Z,2.23
2018-07-03T22:13:17.054Z,2.07
2018-07-03T22:15:48.269Z,2.10
2018-07-03T22:18:18.107Z,2.73
2018-07-03T22:20:49.621Z,1.97
2018-07-03T22:23:20.051Z,2.20
2018-07-03T22:25:52.595Z,2.30
2018-07-03T22:28:21.636Z,2.43
2018-07-03T22:30:51.446Z,2.30
2018-07-03T22:33:21.763Z,2.20
2018-07-03T22:36:03.363Z,2.00
2018-07-03T22:38:33.200Z,2.27
2018-07-03T22:41:03.136Z,2.10
2018-07-03T22:43:34.369Z,2.17
2018-07-03T22:46:03.977Z,2.30
2018-07-03T22:48:33.778Z,2.00
2018-07-03T22:51:08.931Z,2.43
2018-07-03T22:53:38.224Z,2.03
2018-07-03T22:56:13.362Z,2.30
2018-07-03T22:58:43.938Z,2.27
2018-07-03T23:01:13.179Z,2.80
2018-07-03T23:03:43.579Z,1.73
2018-07-03T23:06:14.514Z,2.20
2018-07-03T23:08:44.393Z,2.50
2018-07-03T23:11:15.195Z,2.10
2018-07-03T23:13:44.781Z,2.10
2018-07-03T23:16:16.810Z,1.70
2018-07-03T23:18:47.407Z,2.17
2018-07-03T23:21:17.392Z,2.37
2018-07-03T23:23:46.697Z,2.20
2018-07-03T23:26:18.529Z,2.20
2018-07-03T23:28:48.353Z,2.10
2018-07-03T23:31:18.633Z,2.50
2018-07-03T23:33:48.991Z,2.20
2018-07-03T23:36:19.148Z,2.27
2018-07-03T23:38:50.554Z,1.97
2018-07-03T23:41:21.788Z,2.10
2018-07-03T23:43:51.413Z,2.00
2018-07-03T23:46:34.994Z,1.93
2018-07-03T23:49:24.694Z,2.07
2018-07-03T23:52:12.400Z,1.80
2018-07-03T23:55:00.059Z,2.10
2018-07-03T23:57:48.402Z,2.17
